Time;durP1;ratioP1;P1;durP2;ratioP2;P2;SDS_P1;SDS_P2;PMS_P1;PMS_P2;Temp;Humidity;BMP_temperature;BMP_pressure;BME280_temperature;BME280_humidity;BME280_pressure;Samples;Min_cycle;Max_cycle;Signal;HPM_P1;HPM_P2
2022/01/25 00:31:10;;;;;;;73.23;42.73;;;;;;;;;;5026748;28;20091;-69
2022/01/25 00:33:37;;;;;;;71.00;42.53;;;;;;;;;;5029420;28;20180;-69
2022/01/25 00:36:04;;;;;;;72.33;41.73;;;;;;;;;;5028011;28;20049;-70
2022/01/25 00:38:31;;;;;;;72.53;42.80;;;;;;;;;;5027475;28;20052;-69
2022/01/25 00:40:57;;;;;;;72.80;44.37;;;;;;;;;;5028198;28;20132;-69
2022/01/25 00:43:24;;;;;;;72.33;44.10;;;;;;;;;;5027478;28;20590;-69
2022/01/25 00:45:53;;;;;;;76.60;44.83;;;;;;;;;;5028119;28;20132;-69
2022/01/25 00:48:30;;;;;;;74.80;42.73;;;;;;;;;;5028268;28;20072;-70
2022/01/25 00:51:17;;;;;;;72.17;44.03;;;;;;;;;;5029508;28;20057;-69
2022/01/25 00:53:55;;;;;;;80.43;45.43;;;;;;;;;;5028272;28;20072;-70
2022/01/25 00:56:22;;;;;;;76.73;44.10;;;;;;;;;;5029468;28;20080;-69
2022/01/25 00:58:49;;;;;;;75.93;43.50;;;;;;;;;;5028970;28;20045;-70
2022/01/25 01:01:17;;;;;;;82.07;46.13;;;;;;;;;;5027180;28;20049;-69
2022/01/25 01:03:43;;;;;;;70.27;42.67;;;;;;;;;;5029065;28;20049;-69
2022/01/25 01:06:09;;;;;;;70.93;43.57;;;;;;;;;;5027825;28;20058;-69
2022/01/25 01:08:35;;;;;;;73.30;44.73;;;;;;;;;;5027818;28;20053;-69
2022/01/25 01:11:05;;;;;;;71.50;43.83;;;;;;;;;;5028656;28;20107;-69
2022/01/25 01:13:55;;;;;;;72.60;45.17;;;;;;;;;;5032006;28;20507;-70
2022/01/25 01:35:43;;;;;;;72.67;44.40;;;;;;;;;;5030969;28;20456;-69
2022/01/25 01:46:01;;;;;;;78.23;45.20;;;;;;;;;;5031557;28;20088;-68
2022/01/25 01:48:34;;;;;;;74.60;45.27;;;;;;;;;;5031923;28;20480;-69
2022/01/25 01:51:49;;;;;;;76.55;45.10;;;;;;;;;;5030712;28;20055;-68
2022/01/25 01:53:48;;;;;;;73.37;43.97;;;;;;;;;;5030624;28;20095;-68
2022/01/25 01:56:14;;;;;;;82.60;46.77;;;;;;;;;;5031408;28;20053;-69
2022/01/25 01:58:40;;;;;;;78.53;47.97;;;;;;;;;;5031373;28;20045;-68
2022/01/25 02:01:08;;;;;;;75.50;44.37;;;;;;;;;;5011259;28;20108;-69
2022/01/25 02:03:35;;;;;;;73.23;41.93;;;;;;;;;;5010360;28;20045;-68
2022/01/25 02:06:01;;;;;;;75.77;42.73;;;;;;;;;;5012009;28;20125;-69
2022/01/25 02:08:27;;;;;;;83.20;45.73;;;;;;;;;;5010669;28;20523;-69
2022/01/25 02:10:53;;;;;;;76.50;45.07;;;;;;;;;;5011834;28;20046;-68
2022/01/25 02:13:19;;;;;;;74.10;43.67;;;;;;;;;;5010468;28;20100;-69
2022/01/25 02:15:47;;;;;;;71.63;42.50;;;;;;;;;;5012492;28;20407;-69
2022/01/25 02:23:44;;;;;;;74.17;45.60;;;;;;;;;;5029617;28;20132;-69
2022/01/25 02:26:11;;;;;;;74.93;43.43;;;;;;;;;;5030671;28;20048;-68
2022/01/25 02:28:38;;;;;;;74.00;44.77;;;;;;;;;;5030269;28;20495;-68
2022/01/25 02:31:05;;;;;;;76.07;43.23;;;;;;;;;;5029600;28;20050;-69
2022/01/25 02:33:31;;;;;;;75.87;43.50;;;;;;;;;;5013173;28;20151;-68
2022/01/25 02:35:58;;;;;;;79.10;46.23;;;;;;;;;;5029512;28;20492;-69
2022/01/25 02:38:28;;;;;;;74.50;42.90;;;;;;;;;;5028995;28;20523;-68
2022/01/25 02:40:55;;;;;;;76.07;45.63;;;;;;;;;;5030784;28;20534;-69
2022/01/25 02:43:21;;;;;;;78.93;44.90;;;;;;;;;;5031175;28;20056;-69
2022/01/25 02:46:04;;;;;;;76.63;43.77;;;;;;;;;;5028819;28;20061;-69
2022/01/25 02:48:30;;;;;;;72.57;44.07;;;;;;;;;;5028800;28;20104;-69
2022/01/25 02:51:00;;;;;;;72.47;44.07;;;;;;;;;;5030538;28;20140;-69
2022/01/25 02:53:27;;;;;;;79.17;45.77;;;;;;;;;;5030714;28;20053;-69
2022/01/25 02:55:53;;;;;;;77.33;44.87;;;;;;;;;;5029871;28;20128;-68
2022/01/25 02:58:19;;;;;;;76.27;44.30;;;;;;;;;;5030624;28;20049;-69
2022/01/25 03:00:46;;;;;;;78.90;44.67;;;;;;;;;;5030602;28;20045;-69
2022/01/25 03:03:12;;;;;;;75.03;43.80;;;;;;;;;;5019443;28;20049;-69
2022/01/25 03:05:38;;;;;;;73.40;42.60;;;;;;;;;;5010383;28;20081;-69
2022/01/25 03:08:04;;;;;;;78.87;42.67;;;;;;;;;;5010673;28;20069;-68
2022/01/25 03:10:37;;;;;;;74.17;42.70;;;;;;;;;;5010722;28;20497;-68
2022/01/25 03:13:05;;;;;;;;;;;;;;;;;;5009721;28;20259;-69
2022/01/25 03:15:54;;;;;;;74.83;41.67;;;;;;;;;;5008988;28;19921;-69
2022/01/25 03:18:54;;;;;;;78.73;42.87;;;;;;;;;;5020632;28;20080;-69
2022/01/25 03:23:55;;;;;;;80.50;43.40;;;;;;;;;;5029406;28;20049;-68
2022/01/25 03:26:23;;;;;;;76.17;43.20;;;;;;;;;;5029972;28;20140;-68
2022/01/25 03:28:49;;;;;;;76.00;42.20;;;;;;;;;;5028915;28;20058;-69
2022/01/25 03:31:15;;;;;;;80.73;44.47;;;;;;;;;;5028214;28;20536;-69
2022/01/25 03:33:42;;;;;;;74.47;41.83;;;;;;;;;;5029964;28;20140;-68
2022/01/25 03:36:10;;;;;;;75.57;41.97;;;;;;;;;;5028673;28;20080;-69
2022/01/25 03:38:37;;;;;;;74.80;42.87;;;;;;;;;;5029715;28;20056;-69
2022/01/25 03:41:05;;;;;;;77.57;43.63;;;;;;;;;;5028293;28;20046;-69
2022/01/25 03:43:31;;;;;;;71.40;41.27;;;;;;;;;;5029638;28;20072;-69
2022/01/25 03:46:01;;;;;;;71.83;40.63;;;;;;;;;;5027790;28;20068;-69
2022/01/25 03:50:53;;;;;;;74.90;42.87;;;;;;;;;;5014707;28;20045;-70
2022/01/25 03:53:20;;;;;;;78.63;42.93;;;;;;;;;;5029945;28;20835;-69
2022/01/25 03:55:47;;;;;;;72.97;40.87;;;;;;;;;;5028862;28;20516;-69
2022/01/25 03:58:14;;;;;;;73.77;42.60;;;;;;;;;;5027716;28;20140;-70
2022/01/25 04:00:41;;;;;;;77.73;42.90;;;;;;;;;;5028931;28;20041;-69
2022/01/25 04:03:19;;;;;;;71.13;41.33;;;;;;;;;;5045406;28;20506;-68
2022/01/25 04:08:11;;;;;;;75.97;43.07;;;;;;;;;;5049455;28;20713;-68
2022/01/25 04:10:39;;;;;;;76.10;42.80;;;;;;;;;;5049502;28;20045;-69
2022/01/25 04:13:05;;;;;;;72.87;42.13;;;;;;;;;;5048567;28;20474;-69
2022/01/25 04:15:31;;;;;;;75.93;42.40;;;;;;;;;;5049602;28;20069;-68
2022/01/25 04:18:16;;;;;;;73.63;41.73;;;;;;;;;;5013669;28;20045;-68
2022/01/25 04:20:54;;;;;;;77.77;45.43;;;;;;;;;;5009610;28;20046;-68
2022/01/25 04:26:04;;;;;;;74.27;42.93;;;;;;;;;;5008630;28;20046;-69
2022/01/25 04:28:30;;;;;;;73.60;42.00;;;;;;;;;;5009714;28;20042;-68
2022/01/25 04:30:56;;;;;;;75.17;42.50;;;;;;;;;;5016501;28;20439;-68
2022/01/25 04:33:37;;;;;;;71.83;42.63;;;;;;;;;;5029179;28;20045;-68
2022/01/25 04:49:40;;;;;;;71.83;40.03;;;;;;;;;;5032161;28;20049;-69
2022/01/25 04:52:11;;;;;;;76.70;41.20;;;;;;;;;;5030921;28;20037;-69
2022/01/25 05:00:20;;;;;;;77.53;41.73;;;;;;;;;;5030324;28;20052;-69
2022/01/25 05:05:21;;;;;;;76.30;42.17;;;;;;;;;;5030825;28;20049;-69
2022/01/25 05:07:56;;;;;;;77.43;40.67;;;;;;;;;;5012446;28;20096;-68
2022/01/25 05:10:22;;;;;;;74.97;41.77;;;;;;;;;;5026887;28;20567;-69
2022/01/25 05:13:13;;;;;;;77.17;42.60;;;;;;;;;;5027384;28;20057;-68
2022/01/25 05:16:02;;;;;;;73.37;39.60;;;;;;;;;;5029435;28;20439;-68
2022/01/25 05:18:37;;;;;;;71.67;39.97;;;;;;;;;;5046309;28;20069;-69
2022/01/25 05:23:48;;;;;;;72.30;40.73;;;;;;;;;;5031470;28;20057;-69
2022/01/25 05:26:14;;;;;;;70.70;39.33;;;;;;;;;;5031642;28;20052;-69
2022/01/25 05:28:40;;;;;;;74.50;40.67;;;;;;;;;;5030130;28;20038;-69
2022/01/25 05:31:06;;;;;;;72.60;40.33;;;;;;;;;;5030858;28;20056;-69
2022/01/25 05:33:32;;;;;;;75.70;40.77;;;;;;;;;;5031538;28;20049;-69
2022/01/25 05:35:58;;;;;;;74.50;41.30;;;;;;;;;;5031243;28;20049;-69
2022/01/25 05:38:24;;;;;;;75.13;39.13;;;;;;;;;;5028004;28;20081;-69
2022/01/25 05:41:00;;;;;;;76.67;41.17;;;;;;;;;;5031216;28;20045;-69
2022/01/25 05:48:26;;;;;;;75.07;40.50;;;;;;;;;;5030185;28;20296;-69
2022/01/25 05:50:53;;;;;;;81.93;39.30;;;;;;;;;;5028909;28;20034;-69
2022/01/25 05:53:19;;;;;;;76.70;42.20;;;;;;;;;;5029906;28;20053;-69
2022/01/25 05:55:45;;;;;;;79.97;41.73;;;;;;;;;;5030361;28;20052;-69
2022/01/25 05:58:11;;;;;;;76.37;40.40;;;;;;;;;;5031008;28;20411;-69
2022/01/25 06:00:38;;;;;;;69.77;38.13;;;;;;;;;;5045546;28;20057;-69
2022/01/25 06:03:05;;;;;;;82.07;43.17;;;;;;;;;;5030759;28;20091;-69
2022/01/25 06:05:32;;;;;;;72.23;41.77;;;;;;;;;;5029274;28;20045;-69
2022/01/25 06:07:58;;;;;;;75.07;40.80;;;;;;;;;;5030583;28;20037;-69
2022/01/25 06:10:24;;;;;;;76.37;41.27;;;;;;;;;;5031022;28;20079;-69
2022/01/25 06:12:50;;;;;;;70.60;39.90;;;;;;;;;;5030220;28;20046;-69
2022/01/25 06:15:16;;;;;;;70.90;41.07;;;;;;;;;;5030339;28;20193;-69
2022/01/25 06:17:43;;;;;;;82.27;41.60;;;;;;;;;;5030795;28;20455;-69
2022/01/25 06:20:09;;;;;;;75.73;41.53;;;;;;;;;;5028604;28;20061;-69
2022/01/25 06:22:36;;;;;;;80.20;40.97;;;;;;;;;;5030407;28;20049;-69
2022/01/25 06:25:02;;;;;;;76.67;41.70;;;;;;;;;;5030157;28;20049;-69
2022/01/25 06:27:28;;;;;;;79.13;42.80;;;;;;;;;;5029876;28;20038;-69
2022/01/25 06:29:54;;;;;;;77.93;40.17;;;;;;;;;;5028500;28;20053;-69
2022/01/25 06:32:20;;;;;;;80.70;42.57;;;;;;;;;;5030630;28;20050;-68
2022/01/25 06:34:47;;;;;;;76.03;41.40;;;;;;;;;;5029297;28;20049;-69
2022/01/25 06:37:13;;;;;;;74.80;41.57;;;;;;;;;;5044968;28;20510;-70
2022/01/25 06:39:41;;;;;;;73.03;41.23;;;;;;;;;;5029214;28;20488;-69
2022/01/25 06:42:07;;;;;;;77.10;40.93;;;;;;;;;;5030199;28;20148;-70
2022/01/25 06:44:35;;;;;;;75.07;40.93;;;;;;;;;;5028514;28;20049;-69
2022/01/25 06:47:02;;;;;;;79.47;42.43;;;;;;;;;;5029651;28;20094;-69
2022/01/25 06:49:28;;;;;;;76.57;42.13;;;;;;;;;;5030113;28;20128;-69
2022/01/25 06:51:54;;;;;;;72.43;39.87;;;;;;;;;;5029334;28;20626;-69
2022/01/25 06:54:20;;;;;;;73.77;41.10;;;;;;;;;;5030011;28;20594;-69
2022/01/25 06:56:46;;;;;;;78.20;41.47;;;;;;;;;;5030296;28;20135;-69
2022/01/25 06:59:12;;;;;;;75.23;39.77;;;;;;;;;;5028712;28;20452;-69
2022/01/25 07:01:38;;;;;;;80.17;42.83;;;;;;;;;;5027940;28;20049;-69
2022/01/25 07:04:04;;;;;;;79.80;42.00;;;;;;;;;;5028486;28;20055;-69
2022/01/25 07:06:30;;;;;;;80.33;42.90;;;;;;;;;;5028574;28;20037;-69
2022/01/25 07:08:57;;;;;;;80.10;41.23;;;;;;;;;;5027943;28;20095;-69
2022/01/25 07:11:23;;;;;;;77.57;41.47;;;;;;;;;;5028282;28;20034;-69
2022/01/25 07:13:49;;;;;;;76.47;41.13;;;;;;;;;;5023940;28;20045;-69
2022/01/25 07:16:16;;;;;;;77.80;38.83;;;;;;;;;;5009690;28;20042;-69
2022/01/25 07:18:42;;;;;;;77.03;42.03;;;;;;;;;;5008467;28;20046;-69
2022/01/25 07:21:08;;;;;;;75.97;40.07;;;;;;;;;;5011917;28;20050;-69
2022/01/25 07:23:34;;;;;;;79.10;41.60;;;;;;;;;;5027916;28;20129;-69
2022/01/25 07:26:00;;;;;;;80.83;44.20;;;;;;;;;;5027985;28;20049;-69
2022/01/25 07:28:26;;;;;;;79.40;40.27;;;;;;;;;;5028746;28;20124;-69
2022/01/25 07:30:52;;;;;;;80.00;42.87;;;;;;;;;;5026760;28;20053;-69
2022/01/25 07:33:18;;;;;;;79.37;40.57;;;;;;;;;;5037672;28;20049;-69
2022/01/25 07:35:45;;;;;;;80.67;41.87;;;;;;;;;;5043509;28;20384;-69
2022/01/25 07:38:14;;;;;;;74.77;40.63;;;;;;;;;;5025591;28;20104;-69
2022/01/25 07:40:40;;;;;;;77.27;40.50;;;;;;;;;;5026575;28;20053;-69
2022/01/25 07:43:07;;;;;;;79.40;42.73;;;;;;;;;;5031553;28;20094;-69
2022/01/25 07:45:35;;;;;;;83.13;41.87;;;;;;;;;;5034376;28;20500;-69
2022/01/25 07:48:05;;;;;;;72.23;41.50;;;;;;;;;;5026623;28;20045;-70
2022/01/25 07:50:32;;;;;;;74.63;40.57;;;;;;;;;;5027560;28;20060;-69
2022/01/25 07:52:58;;;;;;;71.07;39.03;;;;;;;;;;5018872;28;20527;-70
2022/01/25 07:55:24;;;;;;;78.77;42.73;;;;;;;;;;5021973;28;20633;-69
2022/01/25 07:57:50;;;;;;;75.53;40.43;;;;;;;;;;5028090;28;20076;-69
2022/01/25 08:00:16;;;;;;;78.57;42.37;;;;;;;;;;5027742;28;20201;-69
2022/01/25 08:02:44;;;;;;;77.40;41.50;;;;;;;;;;5010884;28;20049;-69
2022/01/25 08:05:12;;;;;;;77.37;40.80;;;;;;;;;;5024152;28;20419;-69
2022/01/25 08:07:38;;;;;;;77.53;43.40;;;;;;;;;;5024666;28;20662;-69
2022/01/25 08:10:04;;;;;;;78.63;42.07;;;;;;;;;;5021188;28;20057;-69
2022/01/25 08:12:30;;;;;;;84.03;42.70;;;;;;;;;;5025690;28;20561;-69
2022/01/25 08:14:58;;;;;;;77.87;41.67;;;;;;;;;;5022184;28;20045;-69
2022/01/25 08:17:24;;;;;;;77.53;40.77;;;;;;;;;;5024029;28;20068;-69
2022/01/25 08:19:51;;;;;;;73.90;38.23;;;;;;;;;;5001718;28;20454;-70
2022/01/25 08:22:18;;;;;;;73.50;38.57;;;;;;;;;;5023475;28;20054;-69
2022/01/25 08:24:45;;;;;;;75.77;40.63;;;;;;;;;;5022969;28;20551;-70
2022/01/25 08:27:11;;;;;;;76.13;42.27;;;;;;;;;;5029072;28;20049;-69
2022/01/25 08:29:37;;;;;;;77.33;42.93;;;;;;;;;;5032665;28;20049;-69
2022/01/25 08:32:04;;;;;;;80.60;39.37;;;;;;;;;;5030263;28;20064;-69
2022/01/25 08:34:30;;;;;;;78.57;41.47;;;;;;;;;;5033261;28;20088;-69
2022/01/25 08:36:56;;;;;;;80.83;40.20;;;;;;;;;;5031985;28;20495;-69
2022/01/25 08:39:25;;;;;;;76.50;39.53;;;;;;;;;;5024997;28;20133;-69
2022/01/25 08:41:51;;;;;;;79.00;41.53;;;;;;;;;;5034896;28;20049;-70
2022/01/25 08:44:17;;;;;;;79.67;40.87;;;;;;;;;;5019119;28;20563;-69
2022/01/25 08:46:43;;;;;;;79.37;43.83;;;;;;;;;;5049430;28;20075;-69
2022/01/25 08:49:09;;;;;;;75.93;40.87;;;;;;;;;;5044672;28;20126;-69
2022/01/25 08:51:35;;;;;;;78.40;40.80;;;;;;;;;;5041254;28;20095;-69
2022/01/25 08:54:01;;;;;;;78.90;42.13;;;;;;;;;;5031897;28;20102;-69
2022/01/25 08:56:27;;;;;;;80.80;42.53;;;;;;;;;;5031862;28;20052;-69
2022/01/25 08:58:54;;;;;;;79.20;41.00;;;;;;;;;;5031555;28;20049;-69
2022/01/25 09:01:20;;;;;;;75.73;38.93;;;;;;;;;;5032188;28;20096;-69
2022/01/25 09:03:46;;;;;;;77.50;42.13;;;;;;;;;;5031501;28;20041;-69
2022/01/25 09:06:12;;;;;;;79.23;39.70;;;;;;;;;;5031220;28;20129;-69
2022/01/25 09:08:39;;;;;;;76.07;40.73;;;;;;;;;;5031056;28;20045;-69
2022/01/25 09:11:06;;;;;;;73.50;39.90;;;;;;;;;;5031603;28;20045;-69
2022/01/25 09:13:33;;;;;;;74.20;39.13;;;;;;;;;;5029931;28;20499;-69
2022/01/25 09:16:00;;;;;;;72.10;39.13;;;;;;;;;;5030040;28;20050;-69
2022/01/25 09:18:26;;;;;;;72.67;38.87;;;;;;;;;;5029529;28;20049;-69
2022/01/25 09:20:52;;;;;;;75.03;40.20;;;;;;;;;;5029324;28;20526;-69
2022/01/25 09:23:19;;;;;;;77.37;41.67;;;;;;;;;;5029944;28;20491;-69
2022/01/25 09:25:47;;;;;;;76.00;41.13;;;;;;;;;;5031233;28;20088;-69
2022/01/25 09:28:13;;;;;;;83.03;41.43;;;;;;;;;;5013095;28;20137;-69
2022/01/25 09:30:40;;;;;;;76.33;39.20;;;;;;;;;;5030173;28;20049;-69
2022/01/25 09:33:06;;;;;;;77.40;40.80;;;;;;;;;;5029622;28;20554;-69
2022/01/25 09:35:32;;;;;;;75.57;41.37;;;;;;;;;;5029728;28;20073;-69
2022/01/25 09:37:58;;;;;;;72.27;39.30;;;;;;;;;;5029427;28;20535;-69
2022/01/25 09:40:24;;;;;;;81.30;41.13;;;;;;;;;;5029812;28;20095;-69
2022/01/25 09:42:54;;;;;;;81.77;42.27;;;;;;;;;;5030204;28;20049;-69
2022/01/25 09:45:20;;;;;;;82.50;41.30;;;;;;;;;;5028619;28;20408;-69
2022/01/25 09:47:47;;;;;;;84.70;41.13;;;;;;;;;;5029507;28;20077;-69
2022/01/25 09:50:13;;;;;;;77.07;39.00;;;;;;;;;;5029495;28;20763;-69
2022/01/25 09:52:41;;;;;;;73.13;38.20;;;;;;;;;;5030422;28;20041;-69
2022/01/25 09:55:15;;;;;;;76.80;40.70;;;;;;;;;;5030725;28;20077;-69
2022/01/25 09:57:41;;;;;;;76.27;40.67;;;;;;;;;;5030731;28;20061;-69
2022/01/25 10:00:09;;;;;;;82.53;42.83;;;;;;;;;;5030165;28;20514;-69
2022/01/25 10:02:36;;;;;;;74.50;40.87;;;;;;;;;;5030801;28;20130;-69
2022/01/25 10:05:27;;;;;;;70.53;39.30;;;;;;;;;;5029516;28;20085;-69
2022/01/25 10:07:57;;;;;;;75.40;40.07;;;;;;;;;;5029586;28;20060;-69
2022/01/25 10:10:24;;;;;;;76.13;40.47;;;;;;;;;;5009901;28;20501;-70
2022/01/25 10:12:50;;;;;;;78.87;43.23;;;;;;;;;;5009649;28;20497;-69
2022/01/25 10:15:16;;;;;;;76.60;40.93;;;;;;;;;;5008858;28;20455;-69
2022/01/25 10:17:43;;;;;;;72.47;40.63;;;;;;;;;;5010610;28;20496;-69
2022/01/25 10:20:25;;;;;;;73.37;40.77;;;;;;;;;;5010160;28;20061;-70
2022/01/25 10:22:51;;;;;;;80.47;43.00;;;;;;;;;;5026252;28;20068;-69
2022/01/25 10:25:36;;;;;;;78.20;41.93;;;;;;;;;;5029554;28;20095;-69
2022/01/25 10:28:11;;;;;;;77.37;41.17;;;;;;;;;;5028302;28;20522;-69
2022/01/25 10:30:39;;;;;;;80.57;43.50;;;;;;;;;;5029530;28;20510;-70
2022/01/25 10:33:16;;;;;;;85.47;43.17;;;;;;;;;;5029318;28;20076;-69
2022/01/25 10:35:42;;;;;;;79.90;45.03;;;;;;;;;;5027127;28;20480;-69
2022/01/25 10:38:22;;;;;;;73.63;40.97;;;;;;;;;;5029396;28;20056;-69
2022/01/25 10:40:56;;;;;;;82.57;42.87;;;;;;;;;;5029248;28;20056;-69
2022/01/25 10:43:22;;;;;;;;;;;;;;;;;;5027589;28;20052;-70
2022/01/25 10:46:03;;;;;;;71.80;37.70;;;;;;;;;;5026998;28;20008;-69
2022/01/25 10:48:29;;;;;;;73.67;37.60;;;;;;;;;;5027958;28;20116;-69
2022/01/25 10:51:06;;;;;;;78.53;41.83;;;;;;;;;;5027551;28;20067;-69
2022/01/25 10:53:33;;;;;;;69.17;41.10;;;;;;;;;;5028556;28;20419;-69
2022/01/25 10:56:02;;;;;;;76.23;40.03;;;;;;;;;;5028780;28;20571;-70
2022/01/25 10:58:28;;;;;;;78.37;40.03;;;;;;;;;;5028951;28;20091;-70
2022/01/25 11:00:55;;;;;;;76.77;40.40;;;;;;;;;;5027401;28;20503;-70
2022/01/25 11:03:27;;;;;;;71.50;37.23;;;;;;;;;;5028301;28;20171;-71
2022/01/25 11:05:53;;;;;;;75.53;39.00;;;;;;;;;;5027862;28;20046;-71
2022/01/25 11:08:20;;;;;;;73.83;40.57;;;;;;;;;;5029033;28;20119;-70
2022/01/25 11:11:00;;;;;;;75.50;40.73;;;;;;;;;;5028170;28;20053;-70
2022/01/25 11:15:58;;;;;;;72.23;39.73;;;;;;;;;;5028314;28;20092;-68
2022/01/25 11:18:25;;;;;;;75.10;39.97;;;;;;;;;;5027088;28;20061;-68
2022/01/25 11:20:52;;;;;;;73.50;39.33;;;;;;;;;;5028401;28;20049;-68
2022/01/25 11:23:21;;;;;;;68.27;38.10;;;;;;;;;;5028205;28;20120;-68
2022/01/25 11:25:50;;;;;;;71.53;38.10;;;;;;;;;;5006896;28;20084;-68
2022/01/25 11:28:17;;;;;;;78.33;40.53;;;;;;;;;;5007511;28;20060;-68
2022/01/25 11:30:45;;;;;;;73.10;38.27;;;;;;;;;;5015018;28;20084;-68
2022/01/25 11:33:11;;;;;;;85.73;40.13;;;;;;;;;;5028283;28;20051;-68
2022/01/25 11:35:38;;;;;;;77.43;40.90;;;;;;;;;;5026803;28;20148;-68
2022/01/25 11:38:05;;;;;;;71.83;38.57;;;;;;;;;;5027735;28;20395;-68
2022/01/25 11:40:35;;;;;;;74.90;39.87;;;;;;;;;;5028192;28;20068;-69
2022/01/25 11:43:05;;;;;;;69.27;39.10;;;;;;;;;;5027711;28;20100;-68
2022/01/25 11:45:33;;;;;;;69.70;37.47;;;;;;;;;;5026798;28;20046;-69
2022/01/25 11:47:59;;;;;;;69.47;38.10;;;;;;;;;;5026770;28;20087;-68
2022/01/25 11:50:27;;;;;;;71.03;37.27;;;;;;;;;;5025577;28;20081;-68
2022/01/25 11:52:54;;;;;;;78.07;40.00;;;;;;;;;;5028067;28;20057;-70
2022/01/25 11:55:20;;;;;;;76.07;39.83;;;;;;;;;;5027466;28;20099;-70
2022/01/25 11:57:48;;;;;;;72.63;37.60;;;;;;;;;;5026391;28;20080;-71
2022/01/25 12:00:14;;;;;;;67.77;37.57;;;;;;;;;;5010141;28;20083;-70
2022/01/25 12:02:40;;;;;;;71.03;38.17;;;;;;;;;;5027498;28;20034;-71
2022/01/25 12:05:07;;;;;;;67.93;35.83;;;;;;;;;;5026771;28;20059;-71
2022/01/25 12:07:40;;;;;;;74.40;36.97;;;;;;;;;;5026938;28;20053;-68
2022/01/25 12:10:25;;;;;;;75.70;39.38;;;;;;;;;;5027626;28;20050;-68
2022/01/25 12:13:10;;;;;;;70.57;35.53;;;;;;;;;;5028122;28;20057;-68
2022/01/25 12:15:36;;;;;;;70.77;37.23;;;;;;;;;;5027115;28;20427;-68
2022/01/25 12:18:02;;;;;;;69.40;35.87;;;;;;;;;;5026575;28;20415;-69
2022/01/25 12:20:28;;;;;;;71.33;37.37;;;;;;;;;;5027743;28;20136;-69
2022/01/25 12:23:12;;;;;;;66.33;35.10;;;;;;;;;;5027508;28;20422;-69
2022/01/25 12:25:46;;;;;;;;;;;;;;;;;;5025679;28;20526;-68
2022/01/25 12:28:22;;;;;;;75.97;38.78;;;;;;;;;;5027169;28;20040;-68
2022/01/25 12:30:48;;;;;;;72.57;38.93;;;;;;;;;;5027733;28;20057;-69
2022/01/25 12:33:20;;;;;;;74.50;36.57;;;;;;;;;;5010017;28;20061;-68
2022/01/25 12:35:49;;;;;;;78.00;41.20;;;;;;;;;;5027819;28;20052;-68
2022/01/25 12:38:27;;;;;;;79.90;37.83;;;;;;;;;;5026571;28;20506;-68
2022/01/25 12:40:53;;;;;;;75.13;38.60;;;;;;;;;;5027631;28;20621;-68
2022/01/25 12:43:25;;;;;;;82.80;41.27;;;;;;;;;;5027473;28;20049;-68
2022/01/25 12:45:53;;;;;;;71.47;38.60;;;;;;;;;;5026253;28;20154;-68
2022/01/25 12:48:20;;;;;;;73.27;39.20;;;;;;;;;;5025821;28;20053;-68
2022/01/25 12:50:48;;;;;;;76.47;37.97;;;;;;;;;;5027749;28;20511;-68
2022/01/25 12:53:16;;;;;;;74.67;36.00;;;;;;;;;;5007108;28;20050;-68
2022/01/25 12:55:44;;;;;;;74.00;39.57;;;;;;;;;;5007992;28;20095;-68
2022/01/25 12:58:11;;;;;;;67.90;37.77;;;;;;;;;;5006476;28;20057;-68
2022/01/25 13:00:41;;;;;;;69.83;35.87;;;;;;;;;;5007106;28;20042;-68
2022/01/25 13:03:13;;;;;;;72.77;38.40;;;;;;;;;;5007858;28;20058;-68
2022/01/25 13:05:44;;;;;;;74.60;34.67;;;;;;;;;;5007857;28;20141;-68
2022/01/25 13:08:14;;;;;;;70.30;38.13;;;;;;;;;;5027830;28;20045;-68
2022/01/25 13:10:40;;;;;;;75.50;37.07;;;;;;;;;;5031047;28;20582;-68
2022/01/25 13:13:24;;;;;;;73.83;39.53;;;;;;;;;;5030597;28;20098;-68
2022/01/25 13:15:56;;;;;;;80.85;39.85;;;;;;;;;;5030105;28;20053;-68
2022/01/25 13:18:22;;;;;;;68.77;36.10;;;;;;;;;;5029535;28;20416;-68
2022/01/25 13:20:58;;;;;;;77.93;38.47;;;;;;;;;;5030166;28;20057;-69
2022/01/25 13:23:25;;;;;;;70.93;39.47;;;;;;;;;;5029334;28;20057;-68
2022/01/25 13:26:08;;;;;;;76.57;37.83;;;;;;;;;;5029054;28;20419;-69
2022/01/25 13:28:51;;;;;;;77.13;38.30;;;;;;;;;;5030619;28;20507;-68
2022/01/25 13:31:22;;;;;;;72.55;37.30;;;;;;;;;;5030474;28;20049;-68
2022/01/25 13:33:48;;;;;;;74.07;37.67;;;;;;;;;;5029090;28;20169;-68
2022/01/25 13:36:15;;;;;;;74.23;37.80;;;;;;;;;;5028413;28;20103;-68
2022/01/25 13:38:42;;;;;;;74.60;37.23;;;;;;;;;;5029940;28;20052;-68
2022/01/25 13:46:34;;;;;;;74.57;36.10;;;;;;;;;;5029749;28;20417;-67
2022/01/25 13:49:06;;;;;;;66.57;36.17;;;;;;;;;;5029058;28;20060;-68
2022/01/25 13:51:37;;;;;;;66.47;35.90;;;;;;;;;;5028858;28;20045;-68
2022/01/25 13:54:03;;;;;;;65.73;36.57;;;;;;;;;;5045343;28;20046;-68
2022/01/25 13:56:31;;;;;;;71.10;37.20;;;;;;;;;;5028460;28;20052;-68
2022/01/25 13:59:00;;;;;;;67.47;34.57;;;;;;;;;;5029376;28;20366;-68
2022/01/25 14:01:27;;;;;;;70.00;36.90;;;;;;;;;;5028639;28;20073;-69
2022/01/25 14:04:08;;;;;;;67.60;36.90;;;;;;;;;;5027781;28;20496;-69
2022/01/25 14:06:36;;;;;;;70.13;34.80;;;;;;;;;;5028617;28;20045;-68
2022/01/25 14:09:06;;;;;;;70.40;36.47;;;;;;;;;;5028110;28;20080;-69
2022/01/25 14:22:46;;;;;;;70.30;36.60;;;;;;;;;;5028237;28;20060;-69
2022/01/25 14:25:12;;;;;;;65.27;34.87;;;;;;;;;;5029133;28;20045;-69
2022/01/25 14:27:52;;;;;;;79.43;35.93;;;;;;;;;;5038640;28;20045;-68
2022/01/25 14:30:18;;;;;;;70.73;34.87;;;;;;;;;;5019925;28;20156;-69
2022/01/25 14:32:44;;;;;;;72.90;35.37;;;;;;;;;;5019171;28;20049;-69
2022/01/25 14:35:12;;;;;;;69.13;33.97;;;;;;;;;;5027571;28;20053;-69
2022/01/25 14:37:48;;;;;;;71.47;38.20;;;;;;;;;;5027748;28;20045;-69
2022/01/25 14:40:15;;;;;;;69.20;35.87;;;;;;;;;;5026462;28;20052;-69
2022/01/25 14:42:42;;;;;;;77.97;37.30;;;;;;;;;;5027777;28;20049;-69
2022/01/25 14:45:14;;;;;;;69.80;34.90;;;;;;;;;;5028490;28;20037;-69
2022/01/25 14:47:43;;;;;;;68.33;34.53;;;;;;;;;;5027509;28;20124;-69
2022/01/25 14:50:17;;;;;;;72.73;37.03;;;;;;;;;;5027914;28;20049;-69
2022/01/25 14:52:46;;;;;;;70.97;35.77;;;;;;;;;;5028188;28;20059;-69
2022/01/25 14:55:20;;;;;;;74.47;36.60;;;;;;;;;;5027538;28;20124;-69
2022/01/25 14:58:00;;;;;;;;;;;;;;;;;;5029366;28;20041;-69
2022/01/25 15:00:26;;;;;;;65.90;34.57;;;;;;;;;;5027908;28;20003;-69
2022/01/25 15:02:53;;;;;;;70.63;37.27;;;;;;;;;;5028883;28;20046;-70
2022/01/25 15:05:19;;;;;;;73.73;35.83;;;;;;;;;;5027028;28;20132;-69
2022/01/25 15:07:45;;;;;;;72.40;36.23;;;;;;;;;;5028819;28;20584;-69
2022/01/25 15:10:13;;;;;;;66.63;33.37;;;;;;;;;;5028320;28;20080;-69
2022/01/25 15:12:44;;;;;;;62.80;33.07;;;;;;;;;;5028685;28;20132;-69
2022/01/25 15:15:33;;;;;;;69.47;37.33;;;;;;;;;;5026590;28;20049;-69
2022/01/25 15:17:59;;;;;;;78.27;39.50;;;;;;;;;;5028491;28;20049;-69
2022/01/25 15:20:26;;;;;;;68.20;33.70;;;;;;;;;;5027558;28;20057;-69
2022/01/25 15:22:51;;;;;;;79.03;37.33;;;;;;;;;;5027517;28;20478;-68
2022/01/25 15:25:23;;;;;;;75.30;36.90;;;;;;;;;;5023038;28;20119;-69
2022/01/25 15:27:51;;;;;;;72.53;37.30;;;;;;;;;;5037211;28;20073;-69
2022/01/25 15:30:19;;;;;;;68.63;36.53;;;;;;;;;;5018930;28;20037;-69
2022/01/25 15:32:45;;;;;;;70.63;36.03;;;;;;;;;;5036121;28;20102;-68
2022/01/25 15:35:11;;;;;;;77.97;36.93;;;;;;;;;;5038519;28;20453;-69
2022/01/25 15:37:39;;;;;;;69.40;34.93;;;;;;;;;;5037006;28;20045;-69
2022/01/25 15:40:06;;;;;;;71.53;33.67;;;;;;;;;;5034625;28;20568;-70
2022/01/25 15:42:34;;;;;;;73.93;36.33;;;;;;;;;;5036665;28;20075;-69
2022/01/25 15:45:09;;;;;;;72.67;35.07;;;;;;;;;;5033420;28;20738;-69
2022/01/25 15:47:35;;;;;;;69.57;35.17;;;;;;;;;;5034796;28;20154;-69
2022/01/25 15:50:01;;;;;;;77.40;35.73;;;;;;;;;;5036928;28;20460;-69
2022/01/25 15:52:27;;;;;;;68.10;35.30;;;;;;;;;;5034890;28;20064;-69
2022/01/25 15:54:54;;;;;;;69.57;34.57;;;;;;;;;;5048994;28;20045;-68
2022/01/25 15:57:20;;;;;;;75.80;36.90;;;;;;;;;;5042566;28;20091;-69
2022/01/25 15:59:58;;;;;;;73.67;35.03;;;;;;;;;;5036193;28;20049;-69
